createdAt,value
2018-01-06T00:01:02.750Z,3.00
2018-01-06T00:03:30.153Z,2.30
2018-01-06T00:05:58.367Z,2.40
2018-01-06T00:08:25.773Z,2.50
2018-01-06T00:10:53.185Z,2.37
2018-01-06T00:13:21.367Z,2.80
2018-01-06T00:15:49.574Z,2.77
2018-01-06T00:18:17.018Z,3.10
2018-01-06T00:20:45.189Z,2.80
2018-01-06T00:23:12.621Z,3.10
2018-01-06T00:25:40.031Z,4.30
2018-01-06T00:28:07.461Z,3.53
2018-01-06T00:30:34.880Z,3.60
2018-01-06T00:33:03.074Z,4.43
2018-01-06T00:35:31.278Z,4.20
2018-01-06T00:37:58.756Z,4.33
2018-01-06T00:40:26.149Z,4.90
2018-01-06T00:42:53.561Z,4.80
2018-01-06T00:45:21.733Z,4.23
2018-01-06T00:47:49.958Z,5.60
2018-01-06T00:50:17.368Z,4.80
2018-01-06T00:52:44.790Z,5.30
2018-01-06T00:55:12.266Z,5.13
2018-01-06T00:57:39.672Z,5.50
2018-01-06T01:00:07.098Z,5.63
2018-01-06T01:02:34.517Z,5.27
2018-01-06T01:05:03.441Z,5.60
2018-01-06T01:07:31.609Z,5.60
2018-01-06T01:09:59.781Z,5.30
2018-01-06T01:12:27.189Z,5.40
2018-01-06T01:14:55.361Z,6.30
2018-01-06T01:17:23.543Z,8.57
2018-01-06T01:19:50.967Z,6.03
2018-01-06T01:22:18.370Z,5.07
2018-01-06T01:24:45.774Z,5.10
2018-01-06T01:27:13.184Z,5.37
2018-01-06T01:29:40.602Z,5.43
2018-01-06T01:32:08.785Z,5.57
2018-01-06T01:34:36.963Z,4.90
2018-01-06T01:37:05.176Z,5.17
2018-01-06T01:39:32.573Z,5.10
2018-01-06T01:42:00.007Z,4.90
2018-01-06T01:44:27.497Z,6.13
2018-01-06T01:46:54.946Z,5.03
2018-01-06T01:49:22.354Z,5.03
2018-01-06T01:51:49.857Z,4.93
2018-01-06T01:54:18.126Z,5.03
2018-01-06T01:56:45.550Z,4.47
2018-01-06T01:59:12.961Z,5.30
2018-01-06T02:01:40.373Z,5.07
2018-01-06T02:04:07.777Z,4.27
2018-01-06T02:06:35.214Z,4.20
2018-01-06T02:09:02.630Z,4.40
2018-01-06T02:11:30.051Z,4.50
2018-01-06T02:13:57.472Z,3.90
2018-01-06T02:16:24.908Z,3.63
2018-01-06T02:18:52.329Z,4.10
2018-01-06T02:21:20.518Z,3.70
2018-01-06T02:23:48.728Z,3.37
2018-01-06T02:26:16.886Z,3.50
2018-01-06T02:28:45.086Z,3.47
2018-01-06T02:31:12.498Z,3.67
2018-01-06T02:33:39.931Z,3.40
2018-01-06T02:36:07.330Z,3.30
2018-01-06T02:38:34.867Z,3.50
2018-01-06T02:41:02.355Z,3.50
2018-01-06T02:43:29.815Z,3.53
2018-01-06T02:45:57.202Z,4.03
2018-01-06T02:48:24.618Z,3.10
2018-01-06T02:50:52.938Z,3.60
2018-01-06T02:53:21.081Z,3.10
2018-01-06T02:55:48.494Z,3.17
2018-01-06T02:58:15.910Z,3.87
2018-01-06T03:00:43.314Z,3.70
2018-01-06T03:03:10.718Z,3.20
2018-01-06T03:05:38.185Z,4.00
2018-01-06T03:08:05.621Z,3.83
2018-01-06T03:10:33.025Z,3.57
2018-01-06T03:13:00.466Z,3.60
2018-01-06T03:15:27.887Z,3.50
2018-01-06T03:17:55.403Z,3.70
2018-01-06T03:20:22.892Z,3.60
2018-01-06T03:22:50.336Z,3.93
2018-01-06T03:25:17.750Z,4.00
2018-01-06T03:27:45.218Z,4.03
2018-01-06T03:30:12.643Z,4.10
2018-01-06T03:32:40.047Z,3.67
2018-01-06T03:35:07.455Z,4.27
2018-01-06T03:37:35.626Z,4.27
2018-01-06T03:40:03.802Z,4.40
2018-01-06T03:42:31.342Z,4.30
2018-01-06T03:44:58.798Z,4.40
2018-01-06T03:47:26.193Z,4.33
2018-01-06T03:49:53.613Z,4.60
2018-01-06T03:52:21.790Z,4.50
2018-01-06T03:54:49.978Z,4.20
2018-01-06T03:57:17.457Z,4.30
2018-01-06T03:59:44.870Z,4.50
2018-01-06T04:02:12.283Z,4.07
2018-01-06T04:04:40.478Z,4.27
2018-01-06T04:07:07.902Z,4.20
2018-01-06T04:09:35.314Z,4.30
2018-01-06T04:12:03.609Z,4.67
2018-01-06T04:14:31.111Z,4.60
2018-01-06T04:16:58.526Z,4.17
2018-01-06T04:19:26.742Z,3.90
2018-01-06T04:21:54.153Z,4.50
2018-01-06T04:24:21.576Z,4.60
2018-01-06T04:26:48.981Z,4.20
2018-01-06T04:29:16.421Z,4.23
2018-01-06T04:31:43.830Z,5.00
2018-01-06T04:34:11.260Z,4.50
2018-01-06T04:36:38.672Z,4.70
2018-01-06T04:39:06.089Z,4.70
2018-01-06T04:41:33.509Z,4.07
2018-01-06T04:44:00.924Z,5.67
2018-01-06T04:46:28.358Z,4.33
2018-01-06T04:48:56.549Z,4.60
2018-01-06T04:51:23.951Z,3.40
2018-01-06T04:53:51.361Z,3.70
2018-01-06T04:56:18.766Z,4.43
2018-01-06T04:58:46.187Z,4.23
2018-01-06T05:01:13.609Z,4.23
2018-01-06T05:03:41.020Z,4.87
2018-01-06T05:06:08.438Z,4.30
2018-01-06T05:08:35.894Z,4.53
2018-01-06T05:11:04.106Z,4.57
2018-01-06T05:13:32.285Z,4.10
2018-01-06T05:15:59.697Z,4.10
2018-01-06T05:18:27.103Z,3.60
2018-01-06T05:20:55.278Z,3.93
2018-01-06T05:23:22.682Z,5.13
2018-01-06T05:25:50.151Z,4.33
2018-01-06T05:28:17.558Z,4.43
2018-01-06T05:30:44.993Z,4.20
2018-01-06T05:33:12.400Z,4.40
2018-01-06T05:35:39.925Z,4.57
2018-01-06T05:38:07.398Z,4.47
2018-01-06T05:40:34.868Z,3.73
2018-01-06T05:43:02.270Z,4.17
2018-01-06T05:45:29.677Z,4.17
2018-01-06T05:47:57.850Z,4.50
2018-01-06T05:50:25.257Z,4.20
2018-01-06T05:52:52.722Z,3.90
2018-01-06T05:55:20.169Z,4.50
2018-01-06T05:57:48.364Z,4.37
2018-01-06T06:00:15.838Z,4.40
2018-01-06T06:02:43.253Z,4.73
2018-01-06T06:05:10.682Z,4.87
2018-01-06T06:07:38.086Z,4.53
2018-01-06T06:10:05.519Z,4.53
2018-01-06T06:12:32.920Z,4.37
2018-01-06T06:15:00.343Z,4.50
2018-01-06T06:17:27.745Z,4.00
2018-01-06T06:19:55.145Z,4.37
2018-01-06T06:22:22.559Z,5.03
2018-01-06T06:24:49.966Z,4.37
2018-01-06T06:27:17.389Z,4.30
2018-01-06T06:29:44.850Z,4.20
2018-01-06T06:32:12.269Z,4.50
2018-01-06T06:34:39.792Z,4.50
2018-01-06T06:37:07.221Z,3.53
2018-01-06T06:39:41.689Z,3.80
2018-01-06T06:42:09.103Z,4.50
2018-01-06T06:44:36.532Z,4.23
2018-01-06T06:47:03.933Z,4.70
2018-01-06T06:49:31.380Z,4.50
2018-01-06T06:51:58.802Z,3.40
2018-01-06T06:54:27.032Z,4.93
2018-01-06T06:56:54.499Z,4.60
2018-01-06T06:59:21.909Z,4.80
2018-01-06T07:01:49.324Z,4.60
2018-01-06T07:04:16.727Z,5.10
2018-01-06T07:06:44.156Z,5.27
2018-01-06T07:09:11.605Z,4.60
2018-01-06T07:11:39.149Z,7.40
2018-01-06T07:14:06.527Z,5.50
2018-01-06T07:16:34.054Z,5.23
2018-01-06T07:19:01.469Z,4.37
2018-01-06T07:21:28.895Z,5.20
2018-01-06T07:23:56.353Z,4.80
2018-01-06T07:26:23.881Z,5.33
2018-01-06T07:28:51.262Z,5.90
2018-01-06T07:31:19.503Z,5.43
2018-01-06T07:33:46.908Z,4.60
2018-01-06T07:36:14.323Z,4.80
2018-01-06T07:38:41.735Z,5.37
2018-01-06T07:41:09.154Z,5.33
2018-01-06T07:43:36.565Z,5.30
2018-01-06T07:46:03.988Z,5.10
2018-01-06T07:48:31.422Z,5.20
2018-01-06T07:50:58.937Z,5.30
2018-01-06T07:53:26.345Z,6.03
2018-01-06T07:55:53.788Z,6.37
2018-01-06T07:58:21.197Z,5.77
2018-01-06T08:00:49.429Z,5.83
2018-01-06T08:03:16.844Z,5.60
2018-01-06T08:05:44.481Z,6.00
2018-01-06T08:08:11.938Z,6.80
2018-01-06T08:10:39.398Z,6.73
2018-01-06T08:13:06.869Z,6.43
2018-01-06T08:15:34.278Z,6.47
2018-01-06T08:18:01.688Z,6.87
2018-01-06T08:20:29.889Z,6.60
2018-01-06T08:22:57.358Z,6.57
2018-01-06T08:25:24.767Z,7.00
2018-01-06T08:27:52.178Z,7.10
2018-01-06T08:30:20.351Z,7.67
2018-01-06T08:32:47.760Z,7.50
2018-01-06T08:35:15.213Z,7.07
2018-01-06T08:37:42.632Z,7.10
2018-01-06T08:40:10.801Z,7.30
2018-01-06T08:42:38.233Z,7.50
2018-01-06T08:45:06.386Z,6.80
2018-01-06T08:47:33.902Z,7.27
2018-01-06T08:50:01.330Z,6.80
2018-01-06T08:52:28.741Z,7.87
2018-01-06T08:54:56.146Z,6.63
2018-01-06T08:57:23.682Z,7.63
2018-01-06T08:59:51.862Z,7.47
2018-01-06T09:02:19.293Z,6.93
2018-01-06T09:04:46.703Z,7.37
2018-01-06T09:07:14.118Z,7.80
2018-01-06T09:09:41.533Z,7.70
2018-01-06T09:12:08.943Z,7.90
2018-01-06T09:14:36.358Z,7.63
2018-01-06T09:17:04.549Z,7.50
2018-01-06T09:19:31.953Z,8.50
2018-01-06T09:21:59.382Z,7.33
2018-01-06T09:24:26.796Z,9.13
2018-01-06T09:26:54.217Z,9.10
2018-01-06T09:29:21.648Z,9.07
2018-01-06T09:31:49.055Z,9.30
2018-01-06T09:34:16.485Z,9.07
2018-01-06T09:36:43.902Z,9.30
2018-01-06T09:39:11.314Z,8.77
2018-01-06T09:41:38.729Z,8.83
2018-01-06T09:44:06.138Z,9.17
2018-01-06T09:46:33.554Z,9.10
2018-01-06T09:49:01.762Z,8.73
2018-01-06T09:51:29.353Z,8.40
2018-01-06T09:53:56.737Z,8.33
2018-01-06T09:56:24.158Z,8.43
2018-01-06T09:58:51.565Z,8.73
2018-01-06T10:01:19.025Z,8.77
2018-01-06T10:03:46.445Z,8.20
2018-01-06T10:06:14.634Z,9.00
2018-01-06T10:08:42.066Z,7.97
2018-01-06T10:11:09.500Z,7.50
2018-01-06T10:13:36.907Z,7.63
2018-01-06T10:16:04.342Z,8.43
2018-01-06T10:18:31.816Z,7.00
2018-01-06T10:20:59.229Z,7.57
2018-01-06T10:23:26.894Z,7.23
2018-01-06T10:25:55.079Z,7.57
2018-01-06T10:28:22.481Z,7.90
2018-01-06T10:30:49.929Z,7.00
2018-01-06T10:33:18.118Z,6.50
2018-01-06T10:35:46.294Z,6.50
2018-01-06T10:38:13.834Z,7.13
2018-01-06T10:40:41.242Z,6.60
2018-01-06T10:43:09.433Z,7.50
2018-01-06T10:45:37.745Z,7.17
2018-01-06T10:48:05.929Z,7.70
2018-01-06T10:50:33.327Z,7.27
2018-01-06T10:53:00.777Z,7.20
2018-01-06T10:55:28.182Z,6.60
2018-01-06T10:57:55.589Z,6.87
2018-01-06T11:00:23.014Z,7.13
2018-01-06T11:02:50.541Z,6.47
2018-01-06T11:05:18.726Z,6.23
2018-01-06T11:07:46.204Z,5.80
2018-01-06T11:10:13.694Z,7.00
2018-01-06T11:12:41.117Z,7.00
2018-01-06T11:15:08.530Z,5.93
2018-01-06T11:17:36.038Z,5.27
2018-01-06T11:20:03.431Z,6.00
2018-01-06T11:22:30.842Z,5.83
2018-01-06T11:24:58.262Z,5.70
2018-01-06T11:27:25.693Z,5.83
2018-01-06T11:29:53.101Z,5.40
2018-01-06T11:32:20.519Z,5.70
2018-01-06T11:34:48.045Z,5.40
2018-01-06T11:37:15.519Z,5.77
2018-01-06T11:39:42.922Z,5.80
2018-01-06T11:42:10.349Z,5.73
2018-01-06T11:44:38.165Z,6.40
2018-01-06T11:47:05.571Z,6.20
2018-01-06T11:49:33.754Z,7.03
2018-01-06T11:52:01.933Z,6.33
2018-01-06T11:54:30.109Z,5.30
2018-01-06T11:56:57.552Z,6.37
2018-01-06T11:59:24.961Z,6.10
2018-01-06T12:01:53.284Z,6.20
2018-01-06T12:04:20.750Z,6.73
2018-01-06T12:06:48.203Z,5.70
2018-01-06T12:09:16.381Z,7.00
2018-01-06T12:11:44.598Z,6.77
2018-01-06T12:14:12.059Z,5.70
2018-01-06T12:16:39.480Z,7.30
2018-01-06T12:19:06.895Z,6.20
2018-01-06T12:21:34.355Z,6.70
2018-01-06T12:24:01.845Z,6.90
2018-01-06T12:26:29.269Z,7.90
2018-01-06T12:28:56.699Z,6.90
2018-01-06T12:31:24.136Z,6.07
2018-01-06T12:33:52.314Z,7.10
2018-01-06T12:36:19.789Z,8.00
2018-01-06T12:38:47.205Z,7.43
2018-01-06T12:41:14.618Z,7.43
2018-01-06T12:43:42.064Z,7.13
2018-01-06T12:46:10.242Z,7.43
2018-01-06T12:48:38.423Z,7.83
2018-01-06T12:51:05.839Z,8.00
2018-01-06T12:53:33.324Z,7.40
2018-01-06T12:56:00.713Z,7.77
2018-01-06T12:58:28.258Z,7.80
2018-01-06T13:00:55.662Z,8.33
2018-01-06T13:03:23.173Z,8.20
2018-01-06T13:05:50.596Z,8.67
2018-01-06T13:08:18.003Z,7.40
2018-01-06T13:10:45.416Z,7.97
2018-01-06T13:13:12.825Z,8.33
2018-01-06T13:15:40.999Z,8.67
2018-01-06T13:18:09.221Z,8.67
2018-01-06T13:20:36.678Z,8.63
2018-01-06T13:23:04.117Z,8.67
2018-01-06T13:25:31.628Z,9.20
2018-01-06T13:27:59.813Z,9.40
2018-01-06T13:30:28.004Z,8.77
2018-01-06T13:32:55.419Z,9.00
2018-01-06T13:35:22.821Z,9.93
2018-01-06T13:37:50.249Z,10.13
2018-01-06T13:40:17.660Z,10.40
2018-01-06T13:42:45.066Z,10.50
2018-01-06T13:45:12.478Z,10.40
2018-01-06T13:47:40.694Z,10.53
2018-01-06T13:50:08.177Z,10.73
2018-01-06T13:52:35.618Z,11.67
2018-01-06T13:55:03.104Z,11.53
2018-01-06T13:57:30.511Z,10.57
2018-01-06T13:59:57.935Z,10.57
2018-01-06T14:02:25.342Z,12.30
2018-01-06T14:04:52.756Z,11.80
2018-01-06T14:07:20.241Z,12.20
2018-01-06T14:09:47.715Z,12.07
2018-01-06T14:12:15.130Z,12.30
2018-01-06T14:14:42.541Z,12.27
2018-01-06T14:17:09.966Z,13.70
2018-01-06T14:19:37.442Z,12.70
2018-01-06T14:22:04.842Z,13.90
2018-01-06T14:24:32.254Z,13.50
2018-01-06T14:26:59.667Z,12.83
2018-01-06T14:29:27.103Z,12.80
2018-01-06T14:31:54.532Z,13.77
2018-01-06T14:34:21.958Z,13.37
2018-01-06T14:36:50.874Z,13.93
2018-01-06T14:39:18.295Z,13.57
2018-01-06T14:41:45.809Z,14.53
2018-01-06T14:44:13.274Z,13.40
2018-01-06T14:46:41.457Z,14.40
2018-01-06T14:49:09.671Z,13.80
2018-01-06T14:51:37.293Z,14.80
2018-01-06T14:54:04.678Z,13.90
2018-01-06T14:56:32.854Z,13.30
2018-01-06T14:59:00.269Z,14.60
2018-01-06T15:01:27.728Z,14.00
2018-01-06T15:03:55.191Z,14.20
2018-01-06T15:06:23.339Z,14.10
2018-01-06T15:08:50.757Z,14.37
2018-01-06T15:11:18.167Z,15.57
2018-01-06T15:13:45.581Z,14.47
2018-01-06T15:16:13.018Z,14.63
2018-01-06T15:18:40.409Z,14.60
2018-01-06T15:21:07.896Z,15.57
2018-01-06T15:23:35.309Z,14.97
2018-01-06T15:26:02.823Z,15.50
2018-01-06T15:28:30.256Z,16.20
2018-01-06T15:30:57.758Z,16.67
2018-01-06T15:33:25.185Z,15.67
2018-01-06T15:35:52.600Z,15.87
2018-01-06T15:38:20.061Z,16.77
2018-01-06T15:40:47.470Z,16.80
2018-01-06T15:43:14.885Z,16.27
2018-01-06T15:45:43.074Z,17.00
2018-01-06T15:48:10.500Z,17.53
2018-01-06T15:50:37.935Z,17.50
2018-01-06T15:53:05.360Z,16.27
2018-01-06T15:55:32.854Z,16.70
2018-01-06T15:58:00.274Z,17.40
2018-01-06T16:00:27.677Z,17.83
2018-01-06T16:02:55.888Z,18.63
2018-01-06T16:05:23.713Z,18.97
2018-01-06T16:07:51.237Z,18.20
2018-01-06T16:10:18.703Z,18.67
2018-01-06T16:12:46.182Z,18.03
2018-01-06T16:15:13.658Z,19.43
2018-01-06T16:17:41.046Z,17.93
2018-01-06T16:20:08.480Z,18.90
2018-01-06T16:22:35.943Z,18.20
2018-01-06T16:25:03.353Z,18.90
2018-01-06T16:27:30.799Z,19.93
2018-01-06T16:29:58.189Z,18.83
2018-01-06T16:32:25.593Z,20.53
2018-01-06T16:34:53.912Z,20.83
2018-01-06T16:37:22.066Z,21.60
2018-01-06T16:39:50.238Z,21.50
2018-01-06T16:42:17.641Z,20.93
2018-01-06T16:44:45.062Z,21.27
2018-01-06T16:47:12.507Z,21.40
2018-01-06T16:49:39.926Z,21.90
2018-01-06T16:52:08.169Z,22.57
2018-01-06T16:54:35.569Z,23.00
2018-01-06T16:57:02.978Z,23.40
2018-01-06T16:59:30.390Z,24.73
2018-01-06T17:01:57.913Z,23.40
2018-01-06T17:04:25.338Z,23.37
2018-01-06T17:06:52.738Z,24.33
2018-01-06T17:09:20.165Z,24.97
2018-01-06T17:11:47.597Z,25.70
2018-01-06T17:14:15.000Z,25.17
2018-01-06T17:16:42.417Z,25.80
2018-01-06T17:19:09.890Z,25.83
2018-01-06T17:21:37.297Z,25.97
2018-01-06T17:24:04.706Z,26.60
2018-01-06T17:26:32.197Z,25.53
2018-01-06T17:28:59.675Z,25.33
2018-01-06T17:31:27.125Z,25.73
2018-01-06T17:33:54.804Z,26.37
2018-01-06T17:36:22.209Z,25.33
2018-01-06T17:38:49.640Z,25.07
2018-01-06T17:41:17.121Z,24.90
2018-01-06T17:43:44.514Z,26.67
2018-01-06T17:46:11.969Z,24.70
2018-01-06T17:48:39.432Z,24.80
2018-01-06T17:51:07.601Z,26.20
2018-01-06T17:53:35.867Z,26.53
2018-01-06T17:56:03.966Z,26.80
2018-01-06T17:58:31.387Z,25.10
2018-01-06T18:00:58.795Z,25.47
2018-01-06T18:03:26.276Z,24.83
2018-01-06T18:05:53.679Z,27.37
2018-01-06T18:08:21.103Z,26.90
2018-01-06T18:10:48.590Z,27.63
2018-01-06T18:13:15.993Z,26.00
2018-01-06T18:15:43.411Z,25.30
2018-01-06T18:18:10.878Z,26.90
2018-01-06T18:20:38.358Z,25.20
2018-01-06T18:23:05.773Z,26.97
2018-01-06T18:25:34.736Z,25.10
2018-01-06T18:28:02.154Z,27.27
2018-01-06T18:30:29.664Z,27.30
2018-01-06T18:32:57.074Z,25.20
2018-01-06T18:35:24.606Z,27.17
2018-01-06T18:37:52.769Z,26.30
2018-01-06T18:40:20.259Z,26.30
2018-01-06T18:42:47.666Z,26.03
2018-01-06T18:45:15.190Z,26.00
2018-01-06T18:47:42.603Z,22.03
2018-01-06T18:50:10.804Z,22.00
2018-01-06T18:52:38.313Z,11.30
2018-01-06T18:55:05.737Z,15.75
2018-01-06T18:57:33.360Z,15.47
2018-01-06T19:00:01.534Z,15.10
2018-01-06T19:02:28.950Z,12.53
2018-01-06T19:04:56.358Z,13.73
2018-01-06T19:07:24.557Z,12.53
2018-01-06T19:09:52.036Z,11.87
2018-01-06T19:12:19.444Z,11.57
2018-01-06T19:14:46.858Z,11.43
2018-01-06T19:17:14.313Z,10.10
2018-01-06T19:19:41.741Z,10.15
2018-01-06T19:22:09.181Z,11.33
2018-01-06T19:24:36.589Z,10.30
2018-01-06T19:27:04.036Z,9.50
2018-01-06T19:29:31.453Z,9.13
2018-01-06T19:31:58.962Z,8.70
2018-01-06T19:34:26.378Z,8.10
2018-01-06T19:36:54.550Z,8.00
2018-01-06T19:39:22.730Z,7.77
2018-01-06T19:41:50.154Z,8.68
2018-01-06T19:44:17.578Z,8.27
2018-01-06T19:46:45.002Z,8.80
2018-01-06T19:49:12.428Z,7.73
2018-01-06T19:51:40.611Z,7.10
2018-01-06T19:54:08.028Z,7.83
2018-01-06T19:56:35.442Z,8.13
2018-01-06T19:59:02.852Z,8.60
2018-01-06T20:01:30.337Z,8.43
2018-01-06T20:03:57.791Z,8.45
2018-01-06T20:06:25.260Z,9.40
2018-01-06T20:08:52.676Z,8.93
2018-01-06T20:11:20.110Z,9.53
2018-01-06T20:13:47.572Z,9.20
2018-01-06T20:16:14.972Z,9.43
2018-01-06T20:18:43.888Z,8.50
2018-01-06T20:21:11.313Z,9.40
2018-01-06T20:23:38.760Z,8.80
2018-01-06T20:26:06.229Z,10.17
2018-01-06T20:28:33.708Z,10.77
2018-01-06T20:31:01.118Z,10.60
2018-01-06T20:33:29.310Z,10.32
2018-01-06T20:35:57.489Z,11.15
2018-01-06T20:38:25.029Z,10.67
2018-01-06T20:40:52.441Z,10.27
2018-01-06T20:43:19.942Z,9.83
2018-01-06T20:45:47.366Z,10.40
2018-01-06T20:48:14.821Z,11.40
2018-01-06T20:50:42.254Z,10.73
2018-01-06T20:53:09.674Z,11.37
2018-01-06T20:55:37.181Z,11.73
2018-01-06T20:58:04.667Z,11.38
2018-01-06T21:00:32.077Z,10.40
2018-01-06T21:02:59.500Z,11.15
2018-01-06T21:05:26.970Z,12.37
2018-01-06T21:07:54.439Z,8.82
2018-01-06T21:10:21.901Z,11.57
2018-01-06T21:12:49.374Z,11.83
2018-01-06T21:15:16.793Z,12.25
2018-01-06T21:17:44.317Z,11.37
2018-01-06T21:20:11.737Z,11.30
2018-01-06T21:22:40.679Z,10.50
2018-01-06T21:25:08.108Z,10.35
2018-01-06T21:27:35.521Z,11.20
2018-01-06T21:30:02.986Z,9.77
2018-01-06T21:32:30.396Z,12.10
2018-01-06T21:34:57.822Z,6.72
2018-01-06T21:37:25.281Z,9.88
2018-01-06T21:39:52.772Z,10.30
2018-01-06T21:42:20.174Z,9.98
2018-01-06T21:44:47.594Z,8.63
2018-01-06T21:47:15.001Z,8.13
2018-01-06T21:49:42.409Z,6.12
2018-01-06T21:52:09.829Z,6.05
2018-01-06T21:54:37.267Z,5.90
2018-01-06T21:57:04.706Z,4.82
2018-01-06T21:59:32.887Z,6.10
2018-01-06T22:02:00.396Z,5.82
2018-01-06T22:04:27.853Z,4.90
2018-01-06T22:06:55.278Z,5.40
2018-01-06T22:09:22.693Z,6.30
2018-01-06T22:11:50.125Z,7.20
2018-01-06T22:14:17.555Z,4.95
2018-01-06T22:16:44.974Z,4.35
2018-01-06T22:19:13.157Z,5.25
2018-01-06T22:21:41.346Z,5.62
2018-01-06T22:24:09.546Z,4.95
2018-01-06T22:26:37.034Z,4.00
2018-01-06T22:29:04.506Z,5.25
2018-01-06T22:31:31.905Z,5.43
2018-01-06T22:33:59.337Z,6.03
2018-01-06T22:36:26.753Z,5.80
2018-01-06T22:38:54.177Z,5.40
2018-01-06T22:41:21.583Z,5.78
2018-01-06T22:43:49.125Z,5.87
2018-01-06T22:46:16.582Z,4.90
2018-01-06T22:48:44.011Z,4.18
2018-01-06T22:51:12.176Z,4.68
2018-01-06T22:53:40.359Z,4.60
2018-01-06T22:56:07.785Z,5.43
2018-01-06T22:58:35.249Z,6.28
2018-01-06T23:01:02.702Z,5.62
2018-01-06T23:03:30.129Z,5.50
2018-01-06T23:05:57.529Z,4.50
2018-01-06T23:08:25.738Z,5.72
2018-01-06T23:10:53.153Z,5.40
2018-01-06T23:13:20.569Z,5.70
2018-01-06T23:15:48.052Z,5.47
2018-01-06T23:18:16.242Z,4.20
2018-01-06T23:20:43.716Z,6.37
2018-01-06T23:23:11.274Z,5.75
2018-01-06T23:25:38.683Z,5.10
2018-01-06T23:28:06.089Z,4.97
2018-01-06T23:30:34.314Z,5.78
2018-01-06T23:33:01.738Z,6.40
2018-01-06T23:35:29.921Z,5.95
2018-01-06T23:37:58.137Z,5.82
2018-01-06T23:40:25.601Z,6.20
2018-01-06T23:42:53.009Z,6.50
2018-01-06T23:45:20.432Z,4.68
2018-01-06T23:47:47.907Z,6.03
2018-01-06T23:50:15.317Z,6.95
2018-01-06T23:52:42.732Z,6.60
2018-01-06T23:55:10.207Z,7.18
2018-01-06T23:57:37.613Z,7.40
